createdAt,value
2019-01-15T00:04:17.484Z,8.43
2019-01-15T00:09:19.940Z,33.57
2019-01-15T00:14:22.409Z,18.67
2019-01-15T00:19:24.869Z,12.67
2019-01-15T00:24:27.297Z,16.60
2019-01-15T00:29:29.737Z,10.53
2019-01-15T00:34:32.228Z,12.37
2019-01-15T00:39:34.678Z,7.73
2019-01-15T00:44:37.145Z,12.57
2019-01-15T00:49:39.597Z,10.03
2019-01-15T00:54:42.051Z,12.77
2019-01-15T00:59:44.494Z,7.87
2019-01-15T01:04:46.975Z,9.00
2019-01-15T01:09:49.418Z,9.23
2019-01-15T01:14:51.965Z,11.83
2019-01-15T01:19:54.444Z,23.73
2019-01-15T01:24:56.886Z,6.83
2019-01-15T01:29:59.353Z,8.13
2019-01-15T01:35:01.829Z,5.37
2019-01-15T01:40:04.291Z,9.20
2019-01-15T01:45:06.742Z,7.77
2019-01-15T01:50:09.191Z,5.43
2019-01-15T01:55:11.640Z,4.40
2019-01-15T02:00:17.043Z,7.97
2019-01-15T02:05:19.519Z,8.80
2019-01-15T02:10:22.003Z,6.07
2019-01-15T02:15:24.476Z,6.37
2019-01-15T02:20:26.930Z,9.57
2019-01-15T02:25:29.380Z,8.37
2019-01-15T02:30:31.820Z,5.93
2019-01-15T02:35:34.290Z,19.17
2019-01-15T02:40:36.739Z,7.10
2019-01-15T02:45:39.179Z,15.10
2019-01-15T02:50:41.791Z,5.40
2019-01-15T02:55:44.239Z,4.43
2019-01-15T03:00:46.701Z,9.63
2019-01-15T03:05:49.151Z,8.83
2019-01-15T03:10:51.596Z,9.20
2019-01-15T03:15:54.047Z,5.37
2019-01-15T03:20:56.496Z,7.40
2019-01-15T03:25:58.937Z,7.30
2019-01-15T03:31:01.402Z,10.37
2019-01-15T03:36:03.871Z,6.97
2019-01-15T03:41:06.307Z,8.20
2019-01-15T03:46:08.760Z,7.97
2019-01-15T03:51:11.204Z,9.53
2019-01-15T03:56:13.655Z,9.30
2019-01-15T04:01:16.153Z,11.87
2019-01-15T04:06:18.601Z,9.13
2019-01-15T04:11:21.049Z,11.60
2019-01-15T04:16:23.506Z,15.47
2019-01-15T04:21:25.998Z,14.30
2019-01-15T04:26:28.426Z,11.73
2019-01-15T04:31:30.892Z,11.80
2019-01-15T04:36:33.353Z,14.63
2019-01-15T04:41:35.812Z,18.77
2019-01-15T04:46:38.339Z,13.73
2019-01-15T04:51:40.699Z,10.83
2019-01-15T04:56:43.163Z,18.10
2019-01-15T05:01:45.590Z,15.13
2019-01-15T05:06:48.043Z,16.40
2019-01-15T05:11:50.491Z,12.90
2019-01-15T05:16:52.947Z,16.57
2019-01-15T05:21:55.399Z,19.90
2019-01-15T05:26:57.853Z,20.20
2019-01-15T05:32:00.370Z,14.73
2019-01-15T05:37:02.814Z,16.70
2019-01-15T05:42:05.253Z,13.93
2019-01-15T05:47:07.710Z,15.47
2019-01-15T05:52:10.191Z,13.17
2019-01-15T05:57:12.651Z,13.87
2019-01-15T06:02:15.102Z,13.23
2019-01-15T06:07:17.542Z,16.40
2019-01-15T06:12:20.001Z,15.10
2019-01-15T06:17:22.462Z,14.47
2019-01-15T06:27:51.114Z,13.10
2019-01-15T06:32:53.569Z,13.67
2019-01-15T06:37:56.025Z,21.23
2019-01-15T06:42:58.494Z,18.07
2019-01-15T06:48:00.947Z,12.93
2019-01-15T06:53:03.395Z,14.83
2019-01-15T06:58:05.845Z,14.53
2019-01-15T07:03:08.313Z,15.33
2019-01-15T07:08:10.774Z,24.83
2019-01-15T07:13:13.221Z,19.73
2019-01-15T07:18:15.710Z,15.53
2019-01-15T07:23:18.197Z,20.50
2019-01-15T07:28:20.688Z,18.30
2019-01-15T07:33:23.153Z,16.07
2019-01-15T07:38:25.606Z,20.43
2019-01-15T07:43:28.055Z,18.17
2019-01-15T07:48:30.521Z,22.80
2019-01-15T07:53:32.945Z,22.33
2019-01-15T07:58:35.394Z,17.27
2019-01-15T08:03:37.838Z,19.93
2019-01-15T08:08:40.303Z,18.63
2019-01-15T08:13:42.749Z,29.20
2019-01-15T08:18:45.210Z,22.77
2019-01-15T08:23:47.777Z,19.40
2019-01-15T08:28:50.231Z,22.43
2019-01-15T08:33:52.780Z,23.00
2019-01-15T08:38:55.234Z,23.43
2019-01-15T08:43:57.699Z,26.57
2019-01-15T08:49:00.165Z,25.97
2019-01-15T08:54:02.662Z,17.43
2019-01-15T08:59:05.144Z,21.17
2019-01-15T09:04:07.600Z,20.03
2019-01-15T09:09:10.068Z,20.03
2019-01-15T09:14:12.521Z,14.67
2019-01-15T09:19:14.969Z,14.50
2019-01-15T09:24:17.610Z,15.93
2019-01-15T09:29:20.071Z,17.67
2019-01-15T09:34:22.528Z,15.20
2019-01-15T09:39:25.010Z,14.37
2019-01-15T09:44:33.836Z,22.50
2019-01-15T09:49:29.962Z,17.80
2019-01-15T09:54:32.427Z,12.87
2019-01-15T09:59:34.865Z,15.63
2019-01-15T10:04:37.320Z,17.63
2019-01-15T10:09:39.793Z,17.70
2019-01-15T10:14:42.260Z,18.37
2019-01-15T10:19:45.282Z,16.53
2019-01-15T10:24:47.227Z,12.97
2019-01-15T10:29:49.682Z,11.53
2019-01-15T10:34:52.211Z,17.47
2019-01-15T10:39:54.608Z,11.53
2019-01-15T10:44:57.065Z,15.80
2019-01-15T10:49:59.526Z,16.40
2019-01-15T10:55:01.992Z,21.20
2019-01-15T11:00:04.447Z,25.90
2019-01-15T11:05:06.914Z,14.73
2019-01-15T11:10:09.376Z,18.40
2019-01-15T11:15:11.835Z,19.20
2019-01-15T11:20:14.289Z,17.63
2019-01-15T11:25:16.741Z,17.47
2019-01-15T11:30:19.199Z,23.83
2019-01-15T11:35:21.660Z,22.73
2019-01-15T11:40:24.219Z,29.13
2019-01-15T11:45:26.690Z,24.13
2019-01-15T11:50:29.149Z,15.90
2019-01-15T11:55:31.632Z,21.90
2019-01-15T12:00:34.092Z,13.63
2019-01-15T12:05:48.794Z,12.10
2019-01-15T12:11:09.531Z,16.47
2019-01-15T12:16:14.856Z,18.67
2019-01-15T12:21:17.308Z,20.23
2019-01-15T12:26:19.766Z,15.43
2019-01-15T12:31:31.298Z,17.17
2019-01-15T12:36:42.571Z,15.40
2019-01-15T12:41:47.535Z,14.40
2019-01-15T12:46:52.976Z,16.17
2019-01-15T12:51:58.370Z,16.33
2019-01-15T12:57:19.287Z,19.10
2019-01-15T13:02:18.486Z,14.57
2019-01-15T13:07:35.996Z,19.07
2019-01-15T13:12:56.729Z,17.27
2019-01-15T13:18:17.384Z,15.70
2019-01-15T13:23:22.878Z,18.33
2019-01-15T13:28:31.348Z,16.63
2019-01-15T13:33:37.052Z,42.27
2019-01-15T13:38:39.222Z,20.10
2019-01-15T13:44:00.059Z,18.10
2019-01-15T13:49:08.701Z,16.73
2019-01-15T13:54:26.380Z,17.20
2019-01-15T13:59:28.837Z,23.83
2019-01-15T14:04:31.316Z,19.90
2019-01-15T14:09:33.897Z,21.07
2019-01-15T14:14:39.336Z,17.57
2019-01-15T14:19:59.692Z,27.27
2019-01-15T14:25:02.171Z,20.77
2019-01-15T14:30:04.653Z,24.63
2019-01-15T14:35:25.259Z,21.63
2019-01-15T14:40:42.695Z,23.70
2019-01-15T14:45:56.522Z,18.27
2019-01-15T14:50:53.421Z,17.57
2019-01-15T14:55:58.818Z,19.30
2019-01-15T15:01:01.285Z,15.57
2019-01-15T15:06:06.665Z,25.60
2019-01-15T15:11:09.118Z,19.40
2019-01-15T15:16:17.389Z,24.97
2019-01-15T15:21:21.540Z,23.30
2019-01-15T15:26:31.481Z,18.03
2019-01-15T15:31:52.229Z,18.47
2019-01-15T15:37:00.961Z,27.13
2019-01-15T15:42:06.186Z,24.90
2019-01-15T15:47:11.551Z,25.17
2019-01-15T15:52:32.417Z,16.67
2019-01-15T15:57:53.150Z,21.43
2019-01-15T16:03:01.804Z,20.90
2019-01-15T16:08:19.425Z,23.67
2019-01-15T16:13:30.951Z,23.03
2019-01-15T16:18:42.643Z,26.30
2019-01-15T16:23:54.351Z,21.27
2019-01-15T16:29:15.193Z,37.60
2019-01-15T16:34:26.488Z,28.90
2019-01-15T16:39:41.236Z,22.07
2019-01-15T16:44:43.720Z,26.43
2019-01-15T16:49:52.398Z,30.77
2019-01-15T16:54:54.883Z,23.83
2019-01-15T17:00:06.664Z,40.37
2019-01-15T17:05:21.218Z,24.53
2019-01-15T17:10:32.503Z,23.67
2019-01-15T17:15:40.787Z,16.37
2019-01-15T17:21:01.369Z,17.50
2019-01-15T17:26:12.817Z,24.30
2019-01-15T17:31:15.303Z,20.97
2019-01-15T17:36:23.730Z,18.43
2019-01-15T17:41:44.517Z,29.00
2019-01-15T17:46:46.984Z,22.43
2019-01-15T17:51:55.244Z,29.07
2019-01-15T17:57:03.762Z,24.60
2019-01-15T18:02:21.528Z,16.50
2019-01-15T18:07:36.214Z,21.80
2019-01-15T18:12:50.472Z,21.23
2019-01-15T18:17:52.956Z,27.77
2019-01-15T18:23:04.376Z,20.30
2019-01-15T18:28:12.823Z,31.53
2019-01-15T18:33:30.285Z,29.93
2019-01-15T18:38:47.659Z,26.27
2019-01-15T18:43:59.373Z,22.93
2019-01-15T18:49:20.043Z,21.63
2019-01-15T18:54:40.510Z,22.70
2019-01-15T18:59:49.110Z,25.63
2019-01-15T19:05:06.778Z,18.97
2019-01-15T19:10:18.598Z,18.47
2019-01-15T19:15:30.384Z,19.97
2019-01-15T19:20:50.990Z,21.73
2019-01-15T19:25:56.400Z,20.57
2019-01-15T19:31:08.194Z,16.70
2019-01-15T19:36:10.726Z,16.97
2019-01-15T19:41:15.686Z,18.07
2019-01-15T19:46:33.422Z,19.67
2019-01-15T19:51:54.295Z,17.60
2019-01-15T19:57:02.385Z,17.47
2019-01-15T20:02:23.074Z,19.47
2019-01-15T20:07:43.579Z,27.33
2019-01-15T20:12:58.137Z,36.63
2019-01-15T20:18:09.613Z,37.43
2019-01-15T20:23:12.091Z,33.20
2019-01-15T20:28:26.572Z,28.43
2019-01-15T20:33:35.235Z,23.87
2019-01-15T20:38:43.468Z,20.10
2019-01-15T20:43:45.918Z,21.27
2019-01-15T20:48:51.354Z,26.27
2019-01-15T20:53:59.813Z,22.63
2019-01-15T20:59:11.195Z,18.90
2019-01-15T21:04:13.728Z,17.27
2019-01-15T21:09:34.354Z,18.77
2019-01-15T21:14:42.957Z,22.83
2019-01-15T21:19:51.373Z,20.27
2019-01-15T21:24:53.900Z,18.37
2019-01-15T21:30:02.300Z,20.97
2019-01-15T21:35:22.792Z,20.20
2019-01-15T21:40:25.271Z,17.87
2019-01-15T21:45:27.724Z,23.97
2019-01-15T21:50:48.162Z,23.67
2019-01-15T21:55:53.284Z,21.20
2019-01-15T22:01:13.823Z,24.53
2019-01-15T22:06:18.826Z,18.50
2019-01-15T22:11:24.046Z,17.63
2019-01-15T22:16:29.449Z,19.43
2019-01-15T22:21:31.915Z,21.47
2019-01-15T22:26:34.389Z,21.67
2019-01-15T22:31:39.679Z,23.87
2019-01-15T22:36:45.069Z,18.00
2019-01-15T22:41:56.196Z,13.87
2019-01-15T22:47:07.835Z,17.77
2019-01-15T22:52:16.234Z,15.07
2019-01-15T22:57:21.616Z,19.60
2019-01-15T23:02:30.313Z,15.73
2019-01-15T23:07:50.825Z,14.93
2019-01-15T23:12:59.310Z,13.37
2019-01-15T23:18:20.191Z,12.17
2019-01-15T23:23:28.210Z,16.43
2019-01-15T23:28:45.748Z,15.57
2019-01-15T23:34:00.226Z,14.43
2019-01-15T23:39:08.634Z,18.13
2019-01-15T23:44:11.094Z,16.40
2019-01-15T23:49:16.420Z,18.90
2019-01-15T23:54:21.834Z,14.83
2019-01-15T23:59:33.256Z,14.17
